Heckscherville, Pennsylvania
Current Conditions -  °F | °C
As of 5:58 PM on Thursday 20 Nov 2014 (Local Time) from KMUI Reporting Station
Clear Clear  
Wind Chill: 25°   Ceiling: Unl
Heat Index: 34°   Visibility: 10mi
Dew Point: 10°   Wind: 14mph
Humidity: 36%   Direction: 280°W
Pressure: 29.98"   Gusts: NA
Location:  40.6882°N, 76.264°W
Report Text: KMUI 202258Z AUTO 28012KT 10SM CLR 01/M12 A2998 RMK AO2 SLP161 T00121123 $
Loading
Personal Weather Stations






























Interactive Weather Map New forecast layout! Learn more

10-Day Weather Forecast

Advertisements
Track Severe Weather on mobile